sensor_id;sensor_type;location;lat;lon;timestamp;P1;durP1;ratioP1;P2;durP2;ratioP2
4694;SDS011;2361;49.540;8.390;2023-12-07T00:00:56;9.18;;;6.22;;
4694;SDS011;2361;49.540;8.390;2023-12-07T00:03:18;10.93;;;6.30;;
4694;SDS011;2361;49.540;8.390;2023-12-07T00:05:40;12.75;;;6.40;;
4694;SDS011;2361;49.540;8.390;2023-12-07T00:08:02;11.25;;;6.88;;
4694;SDS011;2361;49.540;8.390;2023-12-07T00:10:24;11.83;;;6.23;;
4694;SDS011;2361;49.540;8.390;2023-12-07T00:12:46;10.27;;;6.32;;
4694;SDS011;2361;49.540;8.390;2023-12-07T00:15:09;12.15;;;7.10;;
4694;SDS011;2361;49.540;8.390;2023-12-07T00:17:31;12.77;;;6.95;;
4694;SDS011;2361;49.540;8.390;2023-12-07T00:19:53;14.05;;;6.50;;
4694;SDS011;2361;49.540;8.390;2023-12-07T00:22:16;12.53;;;6.90;;
4694;SDS011;2361;49.540;8.390;2023-12-07T00:24:38;12.55;;;6.90;;
4694;SDS011;2361;49.540;8.390;2023-12-07T00:27:00;9.35;;;6.32;;
4694;SDS011;2361;49.540;8.390;2023-12-07T00:29:22;12.75;;;6.53;;
4694;SDS011;2361;49.540;8.390;2023-12-07T00:31:44;11.98;;;6.70;;
4694;SDS011;2361;49.540;8.390;2023-12-07T00:34:06;11.60;;;7.17;;
4694;SDS011;2361;49.540;8.390;2023-12-07T00:36:31;9.80;;;6.47;;
4694;SDS011;2361;49.540;8.390;2023-12-07T00:38:53;10.35;;;6.28;;
4694;SDS011;2361;49.540;8.390;2023-12-07T00:41:15;10.90;;;6.60;;
4694;SDS011;2361;49.540;8.390;2023-12-07T00:43:36;10.13;;;6.63;;
4694;SDS011;2361;49.540;8.390;2023-12-07T00:45:59;9.10;;;6.15;;
4694;SDS011;2361;49.540;8.390;2023-12-07T00:48:21;14.45;;;7.80;;
4694;SDS011;2361;49.540;8.390;2023-12-07T00:50:43;10.70;;;7.00;;
4694;SDS011;2361;49.540;8.390;2023-12-07T00:53:05;10.52;;;6.43;;
4694;SDS011;2361;49.540;8.390;2023-12-07T00:55:28;11.43;;;6.90;;
4694;SDS011;2361;49.540;8.390;2023-12-07T00:57:50;11.68;;;6.85;;
4694;SDS011;2361;49.540;8.390;2023-12-07T01:00:12;11.00;;;6.70;;
4694;SDS011;2361;49.540;8.390;2023-12-07T01:02:34;12.48;;;6.93;;
4694;SDS011;2361;49.540;8.390;2023-12-07T01:04:56;10.20;;;6.50;;
4694;SDS011;2361;49.540;8.390;2023-12-07T01:07:18;10.43;;;6.40;;
4694;SDS011;2361;49.540;8.390;2023-12-07T01:09:41;9.43;;;6.40;;
4694;SDS011;2361;49.540;8.390;2023-12-07T01:12:03;8.80;;;6.43;;
4694;SDS011;2361;49.540;8.390;2023-12-07T01:14:25;12.90;;;6.43;;
4694;SDS011;2361;49.540;8.390;2023-12-07T01:16:47;9.90;;;6.47;;
4694;SDS011;2361;49.540;8.390;2023-12-07T01:19:09;9.77;;;5.97;;
4694;SDS011;2361;49.540;8.390;2023-12-07T01:21:35;9.07;;;6.22;;
4694;SDS011;2361;49.540;8.390;2023-12-07T01:23:57;10.68;;;6.70;;
4694;SDS011;2361;49.540;8.390;2023-12-07T01:26:33;11.93;;;6.80;;
4694;SDS011;2361;49.540;8.390;2023-12-07T01:28:54;10.05;;;6.60;;
4694;SDS011;2361;49.540;8.390;2023-12-07T01:31:16;10.82;;;6.70;;
4694;SDS011;2361;49.540;8.390;2023-12-07T01:33:38;9.00;;;6.25;;
4694;SDS011;2361;49.540;8.390;2023-12-07T01:36:00;8.65;;;6.28;;
4694;SDS011;2361;49.540;8.390;2023-12-07T01:38:22;11.45;;;6.55;;
4694;SDS011;2361;49.540;8.390;2023-12-07T01:40:44;8.18;;;6.00;;
4694;SDS011;2361;49.540;8.390;2023-12-07T01:43:07;9.40;;;5.90;;
4694;SDS011;2361;49.540;8.390;2023-12-07T01:45:29;11.00;;;6.35;;
4694;SDS011;2361;49.540;8.390;2023-12-07T01:47:51;11.00;;;6.40;;
4694;SDS011;2361;49.540;8.390;2023-12-07T01:50:15;8.10;;;6.10;;
4694;SDS011;2361;49.540;8.390;2023-12-07T01:52:38;8.90;;;6.30;;
4694;SDS011;2361;49.540;8.390;2023-12-07T01:55:09;9.85;;;6.03;;
4694;SDS011;2361;49.540;8.390;2023-12-07T01:57:31;9.57;;;6.50;;
4694;SDS011;2361;49.540;8.390;2023-12-07T01:59:53;9.43;;;6.57;;
4694;SDS011;2361;49.540;8.390;2023-12-07T02:02:15;10.63;;;6.82;;
4694;SDS011;2361;49.540;8.390;2023-12-07T02:04:37;11.48;;;6.75;;
4694;SDS011;2361;49.540;8.390;2023-12-07T02:07:00;9.75;;;6.35;;
4694;SDS011;2361;49.540;8.390;2023-12-07T02:09:23;8.65;;;6.10;;
4694;SDS011;2361;49.540;8.390;2023-12-07T02:11:45;10.23;;;6.57;;
4694;SDS011;2361;49.540;8.390;2023-12-07T02:14:06;9.83;;;6.37;;
4694;SDS011;2361;49.540;8.390;2023-12-07T02:16:42;10.27;;;6.50;;
4694;SDS011;2361;49.540;8.390;2023-12-07T02:21:44;12.35;;;6.95;;
4694;SDS011;2361;49.540;8.390;2023-12-07T02:24:14;11.23;;;6.63;;
4694;SDS011;2361;49.540;8.390;2023-12-07T02:26:42;9.43;;;6.20;;
4694;SDS011;2361;49.540;8.390;2023-12-07T02:29:04;10.75;;;6.40;;
4694;SDS011;2361;49.540;8.390;2023-12-07T02:31:26;11.68;;;6.78;;
4694;SDS011;2361;49.540;8.390;2023-12-07T02:33:49;11.85;;;6.88;;
4694;SDS011;2361;49.540;8.390;2023-12-07T02:36:11;13.45;;;7.45;;
4694;SDS011;2361;49.540;8.390;2023-12-07T02:38:36;13.88;;;7.70;;
4694;SDS011;2361;49.540;8.390;2023-12-07T02:40:59;13.40;;;7.30;;
4694;SDS011;2361;49.540;8.390;2023-12-07T02:43:23;11.23;;;7.10;;
4694;SDS011;2361;49.540;8.390;2023-12-07T02:45:45;13.15;;;7.70;;
4694;SDS011;2361;49.540;8.390;2023-12-07T02:48:07;12.70;;;7.47;;
4694;SDS011;2361;49.540;8.390;2023-12-07T02:50:29;11.70;;;7.20;;
4694;SDS011;2361;49.540;8.390;2023-12-07T02:52:51;10.57;;;6.80;;
4694;SDS011;2361;49.540;8.390;2023-12-07T02:55:14;9.82;;;6.40;;
4694;SDS011;2361;49.540;8.390;2023-12-07T02:57:36;9.50;;;6.50;;
4694;SDS011;2361;49.540;8.390;2023-12-07T02:59:58;10.98;;;7.10;;
4694;SDS011;2361;49.540;8.390;2023-12-07T03:02:20;13.23;;;7.60;;
4694;SDS011;2361;49.540;8.390;2023-12-07T03:04:43;11.15;;;7.30;;
4694;SDS011;2361;49.540;8.390;2023-12-07T03:07:05;15.02;;;7.78;;
4694;SDS011;2361;49.540;8.390;2023-12-07T03:09:27;13.50;;;7.50;;
4694;SDS011;2361;49.540;8.390;2023-12-07T03:11:49;11.38;;;6.90;;
4694;SDS011;2361;49.540;8.390;2023-12-07T03:14:11;12.00;;;7.50;;
4694;SDS011;2361;49.540;8.390;2023-12-07T03:16:33;12.25;;;7.20;;
4694;SDS011;2361;49.540;8.390;2023-12-07T03:18:55;11.82;;;6.80;;
4694;SDS011;2361;49.540;8.390;2023-12-07T03:21:17;13.63;;;7.13;;
4694;SDS011;2361;49.540;8.390;2023-12-07T03:23:39;10.82;;;7.30;;
4694;SDS011;2361;49.540;8.390;2023-12-07T03:26:01;11.35;;;7.18;;
4694;SDS011;2361;49.540;8.390;2023-12-07T03:28:23;11.25;;;7.30;;
4694;SDS011;2361;49.540;8.390;2023-12-07T03:30:45;11.95;;;7.00;;
4694;SDS011;2361;49.540;8.390;2023-12-07T03:33:06;12.00;;;7.00;;
4694;SDS011;2361;49.540;8.390;2023-12-07T03:35:28;11.65;;;6.72;;
4694;SDS011;2361;49.540;8.390;2023-12-07T03:37:50;10.35;;;7.10;;
4694;SDS011;2361;49.540;8.390;2023-12-07T03:40:12;13.40;;;7.15;;
4694;SDS011;2361;49.540;8.390;2023-12-07T03:42:34;10.52;;;7.07;;
4694;SDS011;2361;49.540;8.390;2023-12-07T03:45:16;9.95;;;6.45;;
4694;SDS011;2361;49.540;8.390;2023-12-07T03:47:38;11.82;;;6.80;;
4694;SDS011;2361;49.540;8.390;2023-12-07T03:50:00;11.88;;;6.95;;
4694;SDS011;2361;49.540;8.390;2023-12-07T03:52:22;10.98;;;7.20;;
4694;SDS011;2361;49.540;8.390;2023-12-07T03:54:44;11.20;;;6.75;;
4694;SDS011;2361;49.540;8.390;2023-12-07T03:57:06;11.65;;;6.70;;
4694;SDS011;2361;49.540;8.390;2023-12-07T03:59:28;11.27;;;7.00;;
4694;SDS011;2361;49.540;8.390;2023-12-07T04:01:50;12.73;;;7.15;;
4694;SDS011;2361;49.540;8.390;2023-12-07T04:04:12;11.75;;;7.00;;
4694;SDS011;2361;49.540;8.390;2023-12-07T04:06:34;11.52;;;6.90;;
4694;SDS011;2361;49.540;8.390;2023-12-07T04:08:55;11.38;;;7.00;;
4694;SDS011;2361;49.540;8.390;2023-12-07T04:11:18;10.57;;;7.03;;
4694;SDS011;2361;49.540;8.390;2023-12-07T04:13:40;11.48;;;7.18;;
4694;SDS011;2361;49.540;8.390;2023-12-07T04:16:03;11.48;;;6.80;;
4694;SDS011;2361;49.540;8.390;2023-12-07T04:18:25;11.07;;;7.15;;
4694;SDS011;2361;49.540;8.390;2023-12-07T04:20:48;10.90;;;7.00;;
4694;SDS011;2361;49.540;8.390;2023-12-07T04:23:10;12.93;;;7.15;;
4694;SDS011;2361;49.540;8.390;2023-12-07T04:25:31;10.15;;;6.60;;
4694;SDS011;2361;49.540;8.390;2023-12-07T04:27:53;13.55;;;7.65;;
4694;SDS011;2361;49.540;8.390;2023-12-07T04:30:15;9.88;;;7.22;;
4694;SDS011;2361;49.540;8.390;2023-12-07T04:32:37;10.48;;;6.97;;
4694;SDS011;2361;49.540;8.390;2023-12-07T04:35:00;12.50;;;7.03;;
4694;SDS011;2361;49.540;8.390;2023-12-07T04:37:22;12.60;;;7.20;;
4694;SDS011;2361;49.540;8.390;2023-12-07T04:39:44;13.13;;;7.60;;
4694;SDS011;2361;49.540;8.390;2023-12-07T04:42:06;12.30;;;7.40;;
4694;SDS011;2361;49.540;8.390;2023-12-07T04:44:31;11.07;;;7.20;;
4694;SDS011;2361;49.540;8.390;2023-12-07T04:46:53;13.07;;;7.63;;
4694;SDS011;2361;49.540;8.390;2023-12-07T04:49:18;12.53;;;7.43;;
4694;SDS011;2361;49.540;8.390;2023-12-07T04:51:40;13.30;;;7.68;;
4694;SDS011;2361;49.540;8.390;2023-12-07T04:54:03;14.13;;;7.97;;
4694;SDS011;2361;49.540;8.390;2023-12-07T04:56:39;12.50;;;7.55;;
4694;SDS011;2361;49.540;8.390;2023-12-07T04:59:02;11.68;;;7.72;;
4694;SDS011;2361;49.540;8.390;2023-12-07T05:01:24;11.80;;;7.43;;
4694;SDS011;2361;49.540;8.390;2023-12-07T05:03:46;11.30;;;7.03;;
4694;SDS011;2361;49.540;8.390;2023-12-07T05:06:10;14.18;;;7.75;;
4694;SDS011;2361;49.540;8.390;2023-12-07T05:08:36;13.18;;;7.80;;
4694;SDS011;2361;49.540;8.390;2023-12-07T05:10:58;13.02;;;7.70;;
4694;SDS011;2361;49.540;8.390;2023-12-07T05:13:19;12.18;;;7.45;;
4694;SDS011;2361;49.540;8.390;2023-12-07T05:15:41;14.48;;;7.50;;
4694;SDS011;2361;49.540;8.390;2023-12-07T05:18:04;12.50;;;7.60;;
4694;SDS011;2361;49.540;8.390;2023-12-07T05:20:26;13.40;;;7.95;;
4694;SDS011;2361;49.540;8.390;2023-12-07T05:22:50;13.35;;;7.93;;
4694;SDS011;2361;49.540;8.390;2023-12-07T05:25:12;16.08;;;8.93;;
4694;SDS011;2361;49.540;8.390;2023-12-07T05:27:34;14.38;;;7.95;;
4694;SDS011;2361;49.540;8.390;2023-12-07T05:29:56;14.57;;;8.10;;
4694;SDS011;2361;49.540;8.390;2023-12-07T05:32:18;12.85;;;7.82;;
4694;SDS011;2361;49.540;8.390;2023-12-07T05:34:40;13.88;;;8.50;;
4694;SDS011;2361;49.540;8.390;2023-12-07T05:37:02;13.80;;;7.90;;
4694;SDS011;2361;49.540;8.390;2023-12-07T05:39:25;13.93;;;8.25;;
4694;SDS011;2361;49.540;8.390;2023-12-07T05:41:47;13.55;;;7.72;;
4694;SDS011;2361;49.540;8.390;2023-12-07T05:44:09;12.97;;;7.87;;
4694;SDS011;2361;49.540;8.390;2023-12-07T05:46:31;12.77;;;7.95;;
4694;SDS011;2361;49.540;8.390;2023-12-07T05:48:54;12.65;;;7.43;;
4694;SDS011;2361;49.540;8.390;2023-12-07T05:51:17;13.13;;;7.87;;
4694;SDS011;2361;49.540;8.390;2023-12-07T05:53:41;12.52;;;7.95;;
4694;SDS011;2361;49.540;8.390;2023-12-07T05:56:04;14.88;;;8.38;;
4694;SDS011;2361;49.540;8.390;2023-12-07T05:58:26;13.60;;;8.00;;
4694;SDS011;2361;49.540;8.390;2023-12-07T06:00:48;16.10;;;8.73;;
4694;SDS011;2361;49.540;8.390;2023-12-07T06:03:10;14.00;;;8.30;;
4694;SDS011;2361;49.540;8.390;2023-12-07T06:05:32;13.55;;;8.10;;
4694;SDS011;2361;49.540;8.390;2023-12-07T06:07:54;12.98;;;8.35;;
4694;SDS011;2361;49.540;8.390;2023-12-07T06:10:17;15.30;;;8.80;;
4694;SDS011;2361;49.540;8.390;2023-12-07T06:12:39;13.57;;;8.25;;
4694;SDS011;2361;49.540;8.390;2023-12-07T06:15:01;13.60;;;8.40;;
4694;SDS011;2361;49.540;8.390;2023-12-07T06:17:23;14.55;;;8.57;;
4694;SDS011;2361;49.540;8.390;2023-12-07T06:19:44;13.50;;;8.20;;
4694;SDS011;2361;49.540;8.390;2023-12-07T06:22:06;16.55;;;8.60;;
4694;SDS011;2361;49.540;8.390;2023-12-07T06:24:28;13.73;;;8.20;;
4694;SDS011;2361;49.540;8.390;2023-12-07T06:26:51;14.20;;;8.30;;
4694;SDS011;2361;49.540;8.390;2023-12-07T06:29:13;19.73;;;11.85;;
4694;SDS011;2361;49.540;8.390;2023-12-07T06:31:35;19.75;;;13.13;;
4694;SDS011;2361;49.540;8.390;2023-12-07T06:33:57;17.13;;;10.07;;
4694;SDS011;2361;49.540;8.390;2023-12-07T06:36:20;16.13;;;8.93;;
4694;SDS011;2361;49.540;8.390;2023-12-07T06:38:42;14.80;;;9.10;;
4694;SDS011;2361;49.540;8.390;2023-12-07T06:41:04;16.33;;;8.48;;
4694;SDS011;2361;49.540;8.390;2023-12-07T06:43:26;16.80;;;9.93;;
4694;SDS011;2361;49.540;8.390;2023-12-07T06:45:48;12.43;;;8.07;;
4694;SDS011;2361;49.540;8.390;2023-12-07T06:48:10;14.27;;;8.00;;
4694;SDS011;2361;49.540;8.390;2023-12-07T06:50:33;17.08;;;8.65;;
4694;SDS011;2361;49.540;8.390;2023-12-07T06:52:55;13.88;;;8.15;;
4694;SDS011;2361;49.540;8.390;2023-12-07T06:55:17;14.27;;;8.70;;
4694;SDS011;2361;49.540;8.390;2023-12-07T06:57:38;15.50;;;8.70;;
4694;SDS011;2361;49.540;8.390;2023-12-07T07:00:00;16.23;;;9.20;;
4694;SDS011;2361;49.540;8.390;2023-12-07T07:02:26;14.13;;;8.20;;
4694;SDS011;2361;49.540;8.390;2023-12-07T07:04:48;17.20;;;8.52;;
4694;SDS011;2361;49.540;8.390;2023-12-07T07:07:11;16.33;;;9.52;;
4694;SDS011;2361;49.540;8.390;2023-12-07T07:09:32;15.68;;;9.05;;
4694;SDS011;2361;49.540;8.390;2023-12-07T07:11:54;15.30;;;8.80;;
4694;SDS011;2361;49.540;8.390;2023-12-07T07:14:16;18.73;;;9.13;;
4694;SDS011;2361;49.540;8.390;2023-12-07T07:16:38;14.50;;;8.53;;
4694;SDS011;2361;49.540;8.390;2023-12-07T07:19:01;14.93;;;8.90;;
4694;SDS011;2361;49.540;8.390;2023-12-07T07:21:23;15.10;;;9.00;;
4694;SDS011;2361;49.540;8.390;2023-12-07T07:23:45;15.57;;;9.43;;
4694;SDS011;2361;49.540;8.390;2023-12-07T07:26:07;14.70;;;9.20;;
4694;SDS011;2361;49.540;8.390;2023-12-07T07:28:29;16.38;;;9.73;;
4694;SDS011;2361;49.540;8.390;2023-12-07T07:30:51;15.35;;;9.52;;
4694;SDS011;2361;49.540;8.390;2023-12-07T07:33:14;17.58;;;10.10;;
4694;SDS011;2361;49.540;8.390;2023-12-07T07:35:36;15.57;;;8.90;;
4694;SDS011;2361;49.540;8.390;2023-12-07T07:37:58;17.52;;;10.10;;
4694;SDS011;2361;49.540;8.390;2023-12-07T07:40:20;17.58;;;9.57;;
4694;SDS011;2361;49.540;8.390;2023-12-07T07:42:42;15.53;;;9.50;;
4694;SDS011;2361;49.540;8.390;2023-12-07T07:45:04;16.98;;;9.25;;
4694;SDS011;2361;49.540;8.390;2023-12-07T07:47:30;16.38;;;9.98;;
4694;SDS011;2361;49.540;8.390;2023-12-07T07:49:52;18.60;;;10.20;;
4694;SDS011;2361;49.540;8.390;2023-12-07T07:52:14;17.50;;;9.63;;
4694;SDS011;2361;49.540;8.390;2023-12-07T07:54:36;18.17;;;10.20;;
4694;SDS011;2361;49.540;8.390;2023-12-07T07:56:58;17.92;;;10.00;;
4694;SDS011;2361;49.540;8.390;2023-12-07T07:59:20;17.00;;;10.30;;
4694;SDS011;2361;49.540;8.390;2023-12-07T08:01:41;17.48;;;9.55;;
4694;SDS011;2361;49.540;8.390;2023-12-07T08:04:03;16.52;;;9.75;;
4694;SDS011;2361;49.540;8.390;2023-12-07T08:06:25;19.77;;;10.75;;
4694;SDS011;2361;49.540;8.390;2023-12-07T08:08:47;20.83;;;11.65;;
4694;SDS011;2361;49.540;8.390;2023-12-07T08:11:13;22.40;;;12.40;;
4694;SDS011;2361;49.540;8.390;2023-12-07T08:13:36;24.52;;;12.27;;
4694;SDS011;2361;49.540;8.390;2023-12-07T08:15:58;20.98;;;11.30;;
4694;SDS011;2361;49.540;8.390;2023-12-07T08:18:20;23.30;;;12.15;;
4694;SDS011;2361;49.540;8.390;2023-12-07T08:20:43;23.40;;;12.82;;
4694;SDS011;2361;49.540;8.390;2023-12-07T08:23:05;23.73;;;12.60;;
4694;SDS011;2361;49.540;8.390;2023-12-07T08:25:27;23.90;;;12.65;;
4694;SDS011;2361;49.540;8.390;2023-12-07T08:27:49;24.48;;;12.40;;
4694;SDS011;2361;49.540;8.390;2023-12-07T08:30:11;21.30;;;11.40;;
4694;SDS011;2361;49.540;8.390;2023-12-07T08:32:33;20.00;;;10.90;;
4694;SDS011;2361;49.540;8.390;2023-12-07T08:34:55;21.45;;;11.75;;
4694;SDS011;2361;49.540;8.390;2023-12-07T08:37:17;25.73;;;11.95;;
4694;SDS011;2361;49.540;8.390;2023-12-07T08:39:39;27.33;;;13.40;;
4694;SDS011;2361;49.540;8.390;2023-12-07T08:42:02;24.48;;;12.30;;
4694;SDS011;2361;49.540;8.390;2023-12-07T08:44:24;28.67;;;13.07;;
4694;SDS011;2361;49.540;8.390;2023-12-07T08:46:46;30.88;;;13.65;;
4694;SDS011;2361;49.540;8.390;2023-12-07T08:49:08;29.65;;;13.23;;
4694;SDS011;2361;49.540;8.390;2023-12-07T08:51:30;29.40;;;13.23;;
4694;SDS011;2361;49.540;8.390;2023-12-07T08:53:52;30.50;;;13.07;;
4694;SDS011;2361;49.540;8.390;2023-12-07T08:56:16;30.58;;;14.10;;
4694;SDS011;2361;49.540;8.390;2023-12-07T08:58:38;28.70;;;13.20;;
4694;SDS011;2361;49.540;8.390;2023-12-07T09:01:01;25.77;;;12.75;;
4694;SDS011;2361;49.540;8.390;2023-12-07T09:03:23;28.87;;;13.73;;
4694;SDS011;2361;49.540;8.390;2023-12-07T09:05:48;27.55;;;13.38;;
4694;SDS011;2361;49.540;8.390;2023-12-07T09:08:10;26.10;;;12.80;;
4694;SDS011;2361;49.540;8.390;2023-12-07T09:10:32;29.38;;;13.18;;
4694;SDS011;2361;49.540;8.390;2023-12-07T09:12:54;32.75;;;13.48;;
4694;SDS011;2361;49.540;8.390;2023-12-07T09:15:16;33.88;;;14.80;;
4694;SDS011;2361;49.540;8.390;2023-12-07T09:17:40;29.58;;;13.77;;
4694;SDS011;2361;49.540;8.390;2023-12-07T09:20:07;27.70;;;12.67;;
4694;SDS011;2361;49.540;8.390;2023-12-07T09:22:34;28.67;;;13.65;;
4694;SDS011;2361;49.540;8.390;2023-12-07T09:24:58;28.42;;;13.82;;
4694;SDS011;2361;49.540;8.390;2023-12-07T09:27:20;29.27;;;12.57;;
4694;SDS011;2361;49.540;8.390;2023-12-07T09:29:42;21.20;;;10.90;;
4694;SDS011;2361;49.540;8.390;2023-12-07T09:32:05;22.42;;;11.02;;
4694;SDS011;2361;49.540;8.390;2023-12-07T09:34:28;23.23;;;11.68;;
4694;SDS011;2361;49.540;8.390;2023-12-07T09:36:50;22.17;;;11.27;;
4694;SDS011;2361;49.540;8.390;2023-12-07T09:39:30;23.75;;;11.38;;
4694;SDS011;2361;49.540;8.390;2023-12-07T09:41:51;20.17;;;10.40;;
4694;SDS011;2361;49.540;8.390;2023-12-07T09:44:13;21.67;;;10.93;;
4694;SDS011;2361;49.540;8.390;2023-12-07T09:46:35;22.60;;;10.80;;
4694;SDS011;2361;49.540;8.390;2023-12-07T09:48:58;22.90;;;11.48;;
4694;SDS011;2361;49.540;8.390;2023-12-07T09:51:20;22.35;;;10.80;;
4694;SDS011;2361;49.540;8.390;2023-12-07T09:53:45;21.17;;;10.45;;
4694;SDS011;2361;49.540;8.390;2023-12-07T09:56:10;24.08;;;10.88;;
4694;SDS011;2361;49.540;8.390;2023-12-07T09:58:32;22.73;;;10.23;;
4694;SDS011;2361;49.540;8.390;2023-12-07T10:01:01;21.75;;;10.48;;
4694;SDS011;2361;49.540;8.390;2023-12-07T10:03:23;20.80;;;9.93;;
4694;SDS011;2361;49.540;8.390;2023-12-07T10:05:55;21.20;;;9.90;;
4694;SDS011;2361;49.540;8.390;2023-12-07T10:08:26;21.92;;;10.45;;
4694;SDS011;2361;49.540;8.390;2023-12-07T10:13:44;20.60;;;9.55;;
4694;SDS011;2361;49.540;8.390;2023-12-07T10:16:12;21.33;;;10.50;;
4694;SDS011;2361;49.540;8.390;2023-12-07T10:18:37;24.27;;;11.02;;
4694;SDS011;2361;49.540;8.390;2023-12-07T10:21:04;22.20;;;10.60;;
4694;SDS011;2361;49.540;8.390;2023-12-07T10:23:27;24.58;;;10.65;;
4694;SDS011;2361;49.540;8.390;2023-12-07T10:25:49;25.83;;;10.85;;
4694;SDS011;2361;49.540;8.390;2023-12-07T10:28:11;21.15;;;9.57;;
4694;SDS011;2361;49.540;8.390;2023-12-07T10:30:34;21.13;;;9.77;;
4694;SDS011;2361;49.540;8.390;2023-12-07T10:32:56;21.13;;;10.02;;
4694;SDS011;2361;49.540;8.390;2023-12-07T10:35:19;22.48;;;9.57;;
4694;SDS011;2361;49.540;8.390;2023-12-07T10:37:41;23.65;;;9.98;;
4694;SDS011;2361;49.540;8.390;2023-12-07T10:40:04;20.95;;;10.27;;
4694;SDS011;2361;49.540;8.390;2023-12-07T10:42:27;23.17;;;10.63;;
4694;SDS011;2361;49.540;8.390;2023-12-07T10:44:54;22.98;;;10.27;;
4694;SDS011;2361;49.540;8.390;2023-12-07T10:47:19;25.63;;;10.70;;
4694;SDS011;2361;49.540;8.390;2023-12-07T10:49:44;22.55;;;10.13;;
4694;SDS011;2361;49.540;8.390;2023-12-07T10:52:13;22.40;;;10.95;;
4694;SDS011;2361;49.540;8.390;2023-12-07T10:57:24;21.20;;;10.45;;
4694;SDS011;2361;49.540;8.390;2023-12-07T10:59:47;24.95;;;11.23;;
4694;SDS011;2361;49.540;8.390;2023-12-07T11:02:12;26.05;;;11.57;;
4694;SDS011;2361;49.540;8.390;2023-12-07T11:04:40;24.97;;;11.43;;
4694;SDS011;2361;49.540;8.390;2023-12-07T11:07:05;25.50;;;11.48;;
4694;SDS011;2361;49.540;8.390;2023-12-07T11:09:32;24.23;;;11.18;;
4694;SDS011;2361;49.540;8.390;2023-12-07T11:12:09;27.77;;;12.43;;
4694;SDS011;2361;49.540;8.390;2023-12-07T11:14:46;24.02;;;11.00;;
4694;SDS011;2361;49.540;8.390;2023-12-07T11:17:09;21.80;;;10.55;;
4694;SDS011;2361;49.540;8.390;2023-12-07T11:22:05;25.05;;;11.20;;
4694;SDS011;2361;49.540;8.390;2023-12-07T11:24:29;22.67;;;10.90;;
4694;SDS011;2361;49.540;8.390;2023-12-07T11:26:52;22.52;;;10.30;;
4694;SDS011;2361;49.540;8.390;2023-12-07T11:29:14;23.13;;;10.55;;
4694;SDS011;2361;49.540;8.390;2023-12-07T11:31:50;30.10;;;12.07;;
4694;SDS011;2361;49.540;8.390;2023-12-07T11:34:13;27.38;;;11.90;;
4694;SDS011;2361;49.540;8.390;2023-12-07T11:36:35;27.00;;;12.50;;
4694;SDS011;2361;49.540;8.390;2023-12-07T11:39:19;26.33;;;12.63;;
4694;SDS011;2361;49.540;8.390;2023-12-07T11:41:50;28.48;;;12.90;;
4694;SDS011;2361;49.540;8.390;2023-12-07T11:44:15;34.45;;;14.27;;
4694;SDS011;2361;49.540;8.390;2023-12-07T11:46:39;32.75;;;14.00;;
4694;SDS011;2361;49.540;8.390;2023-12-07T11:49:01;32.35;;;13.40;;
4694;SDS011;2361;49.540;8.390;2023-12-07T11:51:24;33.25;;;13.43;;
4694;SDS011;2361;49.540;8.390;2023-12-07T11:53:46;32.93;;;13.70;;
4694;SDS011;2361;49.540;8.390;2023-12-07T11:56:10;27.15;;;12.02;;
4694;SDS011;2361;49.540;8.390;2023-12-07T11:58:35;28.65;;;12.40;;
4694;SDS011;2361;49.540;8.390;2023-12-07T12:01:02;31.52;;;13.25;;
4694;SDS011;2361;49.540;8.390;2023-12-07T12:03:26;31.17;;;12.10;;
4694;SDS011;2361;49.540;8.390;2023-12-07T12:05:50;29.90;;;13.07;;
4694;SDS011;2361;49.540;8.390;2023-12-07T12:08:12;27.50;;;11.98;;
4694;SDS011;2361;49.540;8.390;2023-12-07T12:10:34;30.80;;;13.20;;
4694;SDS011;2361;49.540;8.390;2023-12-07T12:12:56;28.40;;;13.05;;
4694;SDS011;2361;49.540;8.390;2023-12-07T12:15:18;32.50;;;13.87;;
4694;SDS011;2361;49.540;8.390;2023-12-07T12:17:41;31.05;;;13.05;;
4694;SDS011;2361;49.540;8.390;2023-12-07T12:20:04;32.00;;;12.43;;
4694;SDS011;2361;49.540;8.390;2023-12-07T12:22:27;25.13;;;11.55;;
4694;SDS011;2361;49.540;8.390;2023-12-07T12:24:48;33.83;;;14.00;;
4694;SDS011;2361;49.540;8.390;2023-12-07T12:27:10;32.42;;;14.23;;
4694;SDS011;2361;49.540;8.390;2023-12-07T12:29:32;28.30;;;12.90;;
4694;SDS011;2361;49.540;8.390;2023-12-07T12:31:56;31.85;;;14.00;;
4694;SDS011;2361;49.540;8.390;2023-12-07T12:34:20;32.08;;;14.65;;
4694;SDS011;2361;49.540;8.390;2023-12-07T12:36:42;31.43;;;13.67;;
4694;SDS011;2361;49.540;8.390;2023-12-07T12:39:04;34.42;;;15.20;;
4694;SDS011;2361;49.540;8.390;2023-12-07T12:41:40;30.10;;;14.20;;
4694;SDS011;2361;49.540;8.390;2023-12-07T12:44:04;29.87;;;14.37;;
4694;SDS011;2361;49.540;8.390;2023-12-07T12:46:26;32.55;;;13.07;;
4694;SDS011;2361;49.540;8.390;2023-12-07T12:48:58;27.03;;;12.20;;
4694;SDS011;2361;49.540;8.390;2023-12-07T12:51:22;25.48;;;11.85;;
4694;SDS011;2361;49.540;8.390;2023-12-07T12:53:47;26.90;;;12.30;;
4694;SDS011;2361;49.540;8.390;2023-12-07T12:56:12;25.75;;;11.10;;
4694;SDS011;2361;49.540;8.390;2023-12-07T12:58:35;25.40;;;11.88;;
4694;SDS011;2361;49.540;8.390;2023-12-07T13:00:57;25.85;;;11.93;;
4694;SDS011;2361;49.540;8.390;2023-12-07T13:03:19;28.00;;;11.73;;
4694;SDS011;2361;49.540;8.390;2023-12-07T13:05:41;26.02;;;11.52;;
4694;SDS011;2361;49.540;8.390;2023-12-07T13:08:04;52.65;;;24.35;;
4694;SDS011;2361;49.540;8.390;2023-12-07T13:10:35;36.33;;;15.93;;
4694;SDS011;2361;49.540;8.390;2023-12-07T13:12:57;28.00;;;12.77;;
4694;SDS011;2361;49.540;8.390;2023-12-07T13:15:19;32.75;;;13.75;;
4694;SDS011;2361;49.540;8.390;2023-12-07T13:17:42;30.77;;;12.63;;
4694;SDS011;2361;49.540;8.390;2023-12-07T13:20:05;29.17;;;12.52;;
4694;SDS011;2361;49.540;8.390;2023-12-07T13:22:35;27.48;;;12.38;;
4694;SDS011;2361;49.540;8.390;2023-12-07T13:24:59;30.23;;;11.85;;
4694;SDS011;2361;49.540;8.390;2023-12-07T13:27:21;28.60;;;11.60;;
4694;SDS011;2361;49.540;8.390;2023-12-07T13:29:43;27.27;;;10.45;;
4694;SDS011;2361;49.540;8.390;2023-12-07T13:32:05;28.73;;;11.50;;
4694;SDS011;2361;49.540;8.390;2023-12-07T13:34:27;23.85;;;9.98;;
4694;SDS011;2361;49.540;8.390;2023-12-07T13:36:49;25.85;;;10.88;;
4694;SDS011;2361;49.540;8.390;2023-12-07T13:39:11;24.73;;;11.52;;
4694;SDS011;2361;49.540;8.390;2023-12-07T13:41:48;28.20;;;11.93;;
4694;SDS011;2361;49.540;8.390;2023-12-07T13:44:10;28.80;;;12.33;;
4694;SDS011;2361;49.540;8.390;2023-12-07T13:46:37;34.42;;;13.85;;
4694;SDS011;2361;49.540;8.390;2023-12-07T13:48:59;37.25;;;13.85;;
4694;SDS011;2361;49.540;8.390;2023-12-07T13:51:21;33.95;;;13.43;;
4694;SDS011;2361;49.540;8.390;2023-12-07T13:53:43;35.53;;;13.85;;
4694;SDS011;2361;49.540;8.390;2023-12-07T13:56:05;36.53;;;14.30;;
4694;SDS011;2361;49.540;8.390;2023-12-07T13:58:29;32.90;;;14.40;;
4694;SDS011;2361;49.540;8.390;2023-12-07T14:00:52;32.67;;;13.93;;
4694;SDS011;2361;49.540;8.390;2023-12-07T14:03:13;29.10;;;13.30;;
4694;SDS011;2361;49.540;8.390;2023-12-07T14:05:35;29.08;;;12.88;;
4694;SDS011;2361;49.540;8.390;2023-12-07T14:07:57;30.15;;;13.68;;
4694;SDS011;2361;49.540;8.390;2023-12-07T14:10:19;29.75;;;12.85;;
4694;SDS011;2361;49.540;8.390;2023-12-07T14:12:42;31.33;;;12.80;;
4694;SDS011;2361;49.540;8.390;2023-12-07T14:15:05;29.52;;;13.40;;
4694;SDS011;2361;49.540;8.390;2023-12-07T14:17:29;28.97;;;13.73;;
4694;SDS011;2361;49.540;8.390;2023-12-07T14:20:10;33.22;;;11.80;;
4694;SDS011;2361;49.540;8.390;2023-12-07T14:22:53;31.90;;;13.17;;
4694;SDS011;2361;49.540;8.390;2023-12-07T14:25:18;26.10;;;11.48;;
4694;SDS011;2361;49.540;8.390;2023-12-07T14:27:40;26.02;;;10.60;;
4694;SDS011;2361;49.540;8.390;2023-12-07T14:30:02;29.27;;;11.35;;
4694;SDS011;2361;49.540;8.390;2023-12-07T14:32:24;27.90;;;11.70;;
4694;SDS011;2361;49.540;8.390;2023-12-07T14:34:47;14.52;;;7.10;;
4694;SDS011;2361;49.540;8.390;2023-12-07T14:37:09;27.57;;;11.00;;
4694;SDS011;2361;49.540;8.390;2023-12-07T14:39:31;25.52;;;11.80;;
4694;SDS011;2361;49.540;8.390;2023-12-07T14:41:53;23.95;;;10.30;;